Time;durP1;ratioP1;P1;durP2;ratioP2;P2;SDS_P1;SDS_P2;PMS_P1;PMS_P2;Temp;Humidity;BMP_temperature;BMP_pressure;BME280_temperature;BME280_humidity;BME280_pressure;Samples;Min_cycle;Max_cycle;Signal;HPM_P1;HPM_P2
2023/09/12 00:03:23;;;;;;;26.80;24.10;;;;;;;17.25;82.92;98544.88;226033;1278;22537;-73
2023/09/12 00:08:26;;;;;;;26.50;23.80;;;;;;;17.22;83.02;98542.35;226171;1279;22561;-74
2023/09/12 00:13:28;;;;;;;27.00;24.20;;;;;;;17.19;83.16;98541.46;226078;1278;22539;-72
2023/09/12 00:18:31;;;;;;;27.90;25.10;;;;;;;17.17;83.13;98540.88;226170;1278;22618;-72
2023/09/12 00:23:33;;;;;;;31.10;27.80;;;;;;;17.16;83.27;98540.53;226195;1276;22540;-73
2023/09/12 00:28:35;;;;;;;30.90;26.90;;;;;;;17.16;83.39;98538.61;226130;1280;22633;-73
2023/09/12 00:33:37;;;;;;;33.20;27.60;;;;;;;17.16;83.43;98537.00;225952;1278;22540;-73
2023/09/12 00:38:39;;;;;;;30.60;27.30;;;;;;;17.15;83.36;98539.77;225971;1278;23293;-73
2023/09/12 00:43:42;;;;;;;28.30;25.00;;;;;;;17.13;83.35;98537.42;225953;1278;22595;-73
2023/09/12 00:48:45;;;;;;;27.70;24.80;;;;;;;17.09;83.25;98541.77;226140;1278;22537;-73
2023/09/12 00:53:48;;;;;;;26.70;23.90;;;;;;;17.04;83.35;98542.70;226154;1280;25236;-73
2023/09/12 00:58:51;;;;;;;28.60;25.60;;;;;;;16.98;83.24;98547.36;225979;1280;22562;-73
2023/09/12 01:03:54;;;;;;;28.40;25.70;;;;;;;16.92;83.32;98544.94;226111;1276;22560;-72
2023/09/12 01:08:57;;;;;;;30.20;26.40;;;;;;;16.85;83.50;98548.97;226182;1277;22549;-72
2023/09/12 01:13:59;;;;;;;29.40;26.40;;;;;;;16.81;83.56;98543.20;226156;1278;22631;-72
2023/09/12 01:19:03;;;;;;;31.30;26.30;;;;;;;16.79;83.75;98540.75;226157;1278;22560;-73
2023/09/12 01:24:31;;;;;;;30.10;26.90;;;;;;;16.75;83.77;98534.88;225977;1271;22526;-73
2023/09/12 01:29:35;;;;;;;31.10;27.80;;;;;;;16.72;84.16;98542.85;226150;1278;22575;-73
2023/09/12 01:34:37;;;;;;;29.40;25.80;;;;;;;16.69;84.14;98546.20;226039;1278;202048;-72
2023/09/12 01:39:39;;;;;;;29.30;26.20;;;;;;;16.66;84.36;98550.14;226137;1278;22544;-74
2023/09/12 01:44:44;;;;;;;30.10;26.40;;;;;;;16.65;84.42;98549.51;226146;1280;22605;-73
2023/09/12 01:49:51;;;;;;;29.80;24.50;;;;;;;16.63;84.65;98551.74;226039;1278;22554;-72
2023/09/12 01:54:55;;;;;;;28.70;25.30;;;;;;;16.62;84.64;98545.69;226233;1280;22539;-73
2023/09/12 01:59:57;;;;;;;26.90;24.20;;;;;;;16.60;84.58;98545.27;226070;1279;22566;-73
2023/09/12 02:05:21;;;;;;;28.20;24.00;;;;;;;16.55;84.59;98545.33;225963;1278;22625;-73
2023/09/12 02:10:23;;;;;;;25.80;22.90;;;;;;;16.50;84.60;98544.19;226213;1276;22564;-73
2023/09/12 02:15:25;;;;;;;26.60;23.60;;;;;;;16.44;84.44;98540.81;226174;1262;22541;-74
2023/09/12 02:20:27;;;;;;;26.20;23.40;;;;;;;16.37;84.76;98540.27;226154;1273;22544;-73
2023/09/12 02:25:29;;;;;;;29.10;26.10;;;;;;;16.32;84.51;98540.40;226166;1276;22543;-73
2023/09/12 02:30:31;;;;;;;30.50;26.00;;;;;;;16.28;84.97;98541.86;226199;1276;22542;-73
2023/09/12 02:35:33;;;;;;;29.10;25.50;;;;;;;16.25;85.12;98544.50;226178;1280;22536;-73
2023/09/12 02:40:35;;;;;;;34.00;27.00;;;;;;;16.22;85.30;98539.04;225922;1279;22548;-73
2023/09/12 02:45:37;;;;;;;28.00;25.10;;;;;;;16.18;85.19;98536.88;226134;1276;25373;-73
2023/09/12 02:50:39;;;;;;;30.60;27.20;;;;;;;16.16;85.10;98541.95;226171;1279;23142;-73
2023/09/12 02:55:42;;;;;;;29.70;26.50;;;;;;;16.13;85.09;98543.42;226155;1280;22565;-73
2023/09/12 03:00:44;;;;;;;30.90;27.60;;;;;;;16.09;85.15;98547.73;225959;1280;22547;-73
2023/09/12 03:05:46;;;;;;;29.20;25.50;;;;;;;16.05;85.27;98550.88;226233;1280;23306;-72
2023/09/12 03:10:56;;;;;;;30.90;25.80;;;;;;;16.00;85.19;98550.77;226153;1280;22562;-72
2023/09/12 03:15:59;;;;;;;29.60;26.00;;;;;;;15.95;85.08;98549.88;226189;1276;25420;-73
2023/09/12 03:21:02;;;;;;;42.30;33.50;;;;;;;15.89;85.32;98550.96;226187;1276;22559;-73
2023/09/12 03:26:05;;;;;;;30.00;26.80;;;;;;;15.85;85.38;98552.09;225959;1280;24266;-73
2023/09/12 03:31:13;;;;;;;31.30;27.90;;;;;;;15.81;85.60;98550.92;226175;1276;22560;-73
2023/09/12 03:36:17;;;;;;;30.70;27.10;;;;;;;15.76;85.49;98550.15;226180;1280;22539;-73
2023/09/12 03:41:24;;;;;;;28.90;25.80;;;;;;;15.72;85.46;98554.70;225950;1276;22547;-74
2023/09/12 03:46:27;;;;;;;28.80;25.80;;;;;;;15.67;85.76;98549.92;226178;1280;22553;-74
2023/09/12 03:51:29;;;;;;;29.30;26.30;;;;;;;15.62;85.68;98547.65;226045;1274;22550;-73
2023/09/12 03:56:31;;;;;;;31.90;25.60;;;;;;;15.57;85.57;98550.44;226166;1277;22615;-73
2023/09/12 04:01:34;;;;;;;29.30;26.00;;;;;;;15.51;85.73;98551.66;226209;1276;22539;-73
2023/09/12 04:06:37;;;;;;;30.20;26.40;;;;;;;15.50;85.98;98550.70;226183;1267;25511;-73
2023/09/12 04:11:39;;;;;;;28.80;25.70;;;;;;;15.49;86.24;98549.31;225991;1280;22678;-73
2023/09/12 04:16:48;;;;;;;29.80;26.60;;;;;;;15.50;86.27;98549.63;225947;1280;22523;-73
2023/09/12 04:21:50;;;;;;;31.50;28.20;;;;;;;15.51;86.36;98551.27;226109;1280;25337;-73
2023/09/12 04:26:53;;;;;;;31.20;27.80;;;;;;;15.53;86.54;98555.73;225980;1280;22568;-73
2023/09/12 04:31:59;;;;;;;29.40;26.30;;;;;;;15.56;86.47;98563.48;226077;1277;25255;-73
2023/09/12 04:37:02;;;;;;;30.60;26.60;;;;;;;15.63;86.70;98560.71;226162;1276;22567;-72
2023/09/12 04:42:05;;;;;;;29.80;26.50;;;;;;;15.69;86.67;98564.25;226179;1280;22544;-73
2023/09/12 04:47:08;;;;;;;28.50;25.60;;;;;;;15.76;86.74;98564.46;226042;1280;22542;-73
2023/09/12 04:52:10;;;;;;;29.80;26.70;;;;;;;15.82;86.65;98561.06;225718;1280;22570;-73
2023/09/12 04:57:12;;;;;;;29.50;26.30;;;;;;;15.89;86.79;98558.42;225595;1279;22557;-74
2023/09/12 05:02:15;;;;;;;28.90;25.90;;;;;;;15.98;86.69;98565.22;226158;1280;22625;-73
2023/09/12 05:07:18;;;;;;;27.80;24.80;;;;;;;16.07;86.79;98569.17;225923;1280;22551;-73
2023/09/12 05:12:20;;;;;;;28.80;25.60;;;;;;;16.17;86.75;98579.77;225920;1278;22650;-73
2023/09/12 05:17:22;;;;;;;27.80;24.50;;;;;;;16.26;86.54;98578.40;226075;1280;22545;-73
2023/09/12 05:22:24;;;;;;;27.10;24.30;;;;;;;16.36;86.47;98578.36;226122;1276;22539;-75
2023/09/12 05:27:26;;;;;;;26.00;23.30;;;;;;;16.47;86.50;98583.27;226085;1276;22546;-73
2023/09/12 05:32:28;;;;;;;28.30;25.10;;;;;;;16.59;86.36;98581.77;226080;1276;26076;-74
2023/09/12 05:37:30;;;;;;;28.60;25.00;;;;;;;16.70;86.14;98576.73;225962;1274;22569;-74
2023/09/12 05:42:32;;;;;;;26.10;23.40;;;;;;;16.82;86.01;98584.75;226035;1277;22526;-73
2023/09/12 05:47:36;;;;;;;26.40;23.70;;;;;;;16.96;86.22;98585.60;225890;1274;22594;-74
2023/09/12 05:52:38;;;;;;;24.60;22.10;;;;;;;17.13;86.20;98581.26;225672;1273;22543;-74
2023/09/12 05:57:40;;;;;;;26.00;22.50;;;;;;;17.30;86.17;98585.99;225681;1274;25908;-74
2023/09/12 06:02:42;;;;;;;26.70;22.90;;;;;;;17.50;86.08;98586.55;225549;1273;25981;-81
2023/09/12 06:07:45;;;;;;;26.20;21.90;;;;;;;17.70;86.00;98587.18;225343;1257;22537;-76
2023/09/12 06:12:48;;;;;;;25.90;22.80;;;;;;;17.90;86.00;98591.46;225667;1260;25155;-74
2023/09/12 06:17:50;;;;;;;26.70;22.70;;;;;;;18.12;85.81;98589.33;225556;1257;22541;-73
2023/09/12 06:22:51;;;;;;;25.70;22.40;;;;;;;18.32;85.55;98589.31;225496;1273;22540;-73
2023/09/12 06:27:53;;;;;;;24.40;21.90;;;;;;;18.51;85.56;98595.14;225274;1273;22555;-73
2023/09/12 06:32:55;;;;;;;25.00;21.50;;;;;;;18.73;85.37;98589.39;225401;1265;22540;-75
2023/09/12 06:37:57;;;;;;;27.00;21.90;;;;;;;18.97;85.37;98593.70;225473;1260;22575;-74
2023/09/12 06:42:59;;;;;;;22.80;19.60;;;;;;;19.19;84.98;98596.09;225569;1256;22548;-74
2023/09/12 06:48:01;;;;;;;21.90;17.40;;;;;;;19.42;84.41;98595.32;225505;1273;22553;-74
2023/09/12 06:53:06;;;;;;;25.00;15.70;;;;;;;19.66;83.85;98598.30;225396;1265;22543;-75
2023/09/12 06:58:08;;;;;;;18.80;14.60;;;;;;;19.90;83.29;98597.80;225206;1257;22607;-74
2023/09/12 07:03:10;;;;;;;17.80;14.80;;;;;;;20.13;82.86;98598.73;225128;1259;22526;-74
2023/09/12 07:08:15;;;;;;;16.00;13.20;;;;;;;20.37;82.34;98598.55;225222;1260;22551;-73
2023/09/12 07:13:17;;;;;;;14.60;13.10;;;;;;;20.60;81.98;98596.31;225486;1265;24213;-73
2023/09/12 07:18:20;;;;;;;14.10;12.70;;;;;;;20.84;81.61;98598.15;225622;1265;22554;-78
2023/09/12 07:23:22;;;;;;;14.90;13.50;;;;;;;21.02;80.85;98600.52;225665;1256;22546;-74
2023/09/12 07:28:25;;;;;;;15.90;13.30;;;;;;;21.22;80.24;98600.55;225607;1260;22589;-74
2023/09/12 07:33:27;;;;;;;13.70;11.50;;;;;;;21.39;79.87;98602.89;225692;1265;22543;-73
2023/09/12 07:38:30;;;;;;;15.70;13.30;;;;;;;21.58;79.32;98603.89;225648;1273;23066;-73
2023/09/12 07:43:33;;;;;;;13.20;11.80;;;;;;;21.78;79.06;98603.40;225565;1257;22560;-73
2023/09/12 07:48:35;;;;;;;15.20;12.10;;;;;;;22.00;78.85;98607.94;225489;1273;24437;-74
2023/09/12 07:53:37;;;;;;;13.60;12.30;;;;;;;22.24;78.69;98602.71;225353;1278;22560;-74
2023/09/12 07:58:39;;;;;;;13.80;12.50;;;;;;;22.40;77.56;98597.98;225475;1276;22548;-74
2023/09/12 08:03:42;;;;;;;15.90;12.20;;;;;;;22.57;77.25;98596.32;225612;1278;22941;-75
2023/09/12 08:08:45;;;;;;;14.90;13.20;;;;;;;22.76;76.69;98594.59;225698;1274;22555;-74
2023/09/12 08:13:49;;;;;;;14.40;12.30;;;;;;;22.97;76.63;98598.98;225609;1276;22555;-75
2023/09/12 08:18:51;;;;;;;15.90;12.50;;;;;;;23.17;76.10;98602.39;225373;1272;22562;-74
2023/09/12 08:23:53;;;;;;;13.50;12.20;;;;;;;23.39;76.11;98597.20;225447;1275;22565;-73
2023/09/12 08:28:55;;;;;;;13.20;11.80;;;;;;;23.62;75.73;98591.14;225640;1274;23061;-76
2023/09/12 08:33:57;;;;;;;13.90;12.40;;;;;;;23.85;75.42;98594.41;225613;1269;22737;-74
2023/09/12 08:39:00;;;;;;;13.70;11.80;;;;;;;24.08;75.01;98590.83;225626;1276;22597;-73
2023/09/12 08:44:05;;;;;;;13.20;11.80;;;;;;;24.28;74.25;98592.27;225683;1276;22548;-73
2023/09/12 08:49:09;;;;;;;12.80;11.50;;;;;;;24.47;73.53;98589.48;225770;1276;22880;-74
2023/09/12 08:54:11;;;;;;;14.20;12.80;;;;;;;24.60;72.81;98590.06;225804;1276;22565;-74
2023/09/12 08:59:15;;;;;;;14.60;11.60;;;;;;;24.81;72.51;98589.11;225626;1278;25441;-74
2023/09/12 09:04:19;;;;;;;13.70;11.30;;;;;;;24.98;71.69;98589.40;225619;1279;22706;-74
2023/09/12 09:09:22;;;;;;;12.60;11.30;;;;;;;25.17;71.30;98586.33;225439;1275;22977;-75
2023/09/12 09:14:24;;;;;;;16.50;11.40;;;;;;;25.33;70.34;98588.27;225647;1276;22534;-74
2023/09/12 09:19:44;;;;;;;12.70;11.40;;;;;;;25.48;70.14;98581.80;225524;1278;22540;-75
2023/09/12 09:24:46;;;;;;;13.60;11.50;;;;;;;25.68;70.01;98580.23;225726;1274;25387;-75
2023/09/12 09:29:48;;;;;;;12.60;11.40;;;;;;;25.85;69.11;98576.45;225722;1280;22906;-75
2023/09/12 09:34:52;;;;;;;14.60;11.10;;;;;;;25.91;67.69;98577.63;225599;1276;22531;-75
2023/09/12 09:39:55;;;;;;;12.70;11.40;;;;;;;26.02;67.82;98572.37;225692;1274;22558;-75
2023/09/12 09:44:57;;;;;;;12.20;11.10;;;;;;;26.21;67.73;98567.20;225644;1279;22636;-75
2023/09/12 09:50:00;;;;;;;12.30;11.20;;;;;;;26.37;67.17;98567.85;225769;1276;22557;-75
2023/09/12 09:55:04;;;;;;;12.80;11.20;;;;;;;26.49;66.43;98565.27;225884;1275;24206;-74
2023/09/12 10:00:11;;;;;;;12.90;11.60;;;;;;;26.65;65.87;98567.05;225911;1277;23215;-75
2023/09/12 10:05:17;;;;;;;12.80;11.50;;;;;;;26.74;64.25;98564.44;225890;1276;22573;-74
2023/09/12 10:10:19;;;;;;;13.40;11.90;;;;;;;26.82;64.46;98559.08;225841;1256;22536;-74
2023/09/12 10:15:22;;;;;;;12.90;11.80;;;;;;;26.97;63.74;98563.59;225574;1273;22550;-74
2023/09/12 10:20:46;;;;;;;12.40;11.10;;;;;;;27.16;63.66;98562.48;225537;1269;22550;-74
2023/09/12 10:25:50;;;;;;;15.00;13.50;;;;;;;27.34;62.89;98557.48;225467;1273;22578;-74
2023/09/12 10:30:57;;;;;;;13.50;12.10;;;;;;;27.50;62.46;98555.87;225434;1270;22547;-74
2023/09/12 10:36:03;;;;;;;13.20;11.40;;;;;;;27.61;61.55;98554.48;225313;1273;22566;-74
2023/09/12 10:41:09;;;;;;;12.90;11.60;;;;;;;27.78;61.50;98546.16;225636;1276;22664;-73
2023/09/12 10:46:11;;;;;;;12.50;11.30;;;;;;;28.00;61.40;98550.18;225575;1272;22573;-73
2023/09/12 10:51:15;;;;;;;13.00;11.80;;;;;;;28.19;60.42;98548.38;225593;1276;22587;-74
2023/09/12 10:56:20;;;;;;;12.30;11.00;;;;;;;28.28;59.17;98551.75;225614;1276;25450;-72
2023/09/12 11:01:25;;;;;;;11.70;10.70;;;;;;;28.40;58.39;98547.09;225524;1265;22539;-73
2023/09/12 11:06:30;;;;;;;13.70;11.50;;;;;;;28.44;57.51;98542.88;225300;1266;25214;-74
2023/09/12 11:11:33;;;;;;;11.90;10.80;;;;;;;28.52;57.17;98545.42;225281;1268;22567;-76
2023/09/12 11:16:36;;;;;;;11.80;10.60;;;;;;;28.56;56.67;98542.71;225575;1277;22542;-75
2023/09/12 11:21:38;;;;;;;13.20;12.10;;;;;;;28.64;56.29;98542.46;225482;1274;23075;-74
2023/09/12 11:27:07;;;;;;;11.60;10.60;;;;;;;28.67;55.99;98541.23;225606;1269;22556;-74
2023/09/12 11:32:10;;;;;;;11.90;10.80;;;;;;;28.73;55.83;98533.52;225457;1259;22543;-75
2023/09/12 11:37:23;;;;;;;11.20;10.30;;;;;;;28.79;55.42;98534.06;225388;1273;22554;-75
2023/09/12 11:42:26;;;;;;;11.50;10.50;;;;;;;28.80;55.33;98533.41;225252;1275;22572;-76
2023/09/12 11:47:28;;;;;;;11.50;10.50;;;;;;;28.81;55.54;98526.47;225261;1278;22647;-74
2023/09/12 11:52:30;;;;;;;10.60;9.80;;;;;;;28.99;55.46;98522.84;225652;1276;22923;-74
2023/09/12 11:57:32;;;;;;;11.00;10.10;;;;;;;29.11;54.51;98521.34;225796;1279;22526;-74
2023/09/12 12:02:34;;;;;;;11.60;10.70;;;;;;;29.16;53.90;98521.70;225790;1275;23348;-74
2023/09/12 12:07:38;;;;;;;10.90;9.90;;;;;;;29.11;53.86;98522.14;225665;1276;23422;-74
2023/09/12 12:12:43;;;;;;;11.80;10.50;;;;;;;29.13;53.75;98515.67;225843;1275;22647;-74
2023/09/12 12:17:45;;;;;;;10.80;9.80;;;;;;;29.22;53.67;98513.47;225449;1280;22567;-74
2023/09/12 12:22:48;;;;;;;11.00;10.00;;;;;;;29.35;53.47;98514.69;225738;1280;22539;-74
2023/09/12 12:27:50;;;;;;;11.80;10.70;;;;;;;29.54;53.40;98506.67;225794;1276;22658;-74
2023/09/12 12:32:52;;;;;;;10.00;9.10;;;;;;;29.70;52.99;98505.14;225276;1278;22547;-73
2023/09/12 12:38:12;;;;;;;10.60;9.60;;;;;;;29.77;52.95;98501.14;225406;1280;24241;-73
2023/09/12 12:43:19;;;;;;;11.20;10.10;;;;;;;29.77;52.30;98499.63;225785;1268;22633;-74
2023/09/12 12:48:32;;;;;;;10.60;9.60;;;;;;;29.70;52.33;98496.14;225680;1280;22917;-73
2023/09/12 12:53:39;;;;;;;10.10;9.20;;;;;;;29.69;52.43;98499.36;225463;1280;25406;-73
2023/09/12 12:58:51;;;;;;;11.00;9.90;;;;;;;29.68;51.77;98499.30;225717;1268;23661;-74
2023/09/12 13:03:56;;;;;;;11.30;9.90;;;;;;;29.69;52.33;98496.81;225692;1275;22555;-75
2023/09/12 13:09:01;;;;;;;10.30;9.40;;;;;;;29.67;52.49;98496.45;225774;1269;22552;-73
2023/09/12 13:14:10;;;;;;;10.90;10.00;;;;;;;29.52;52.69;98494.69;225751;1275;22572;-74
2023/09/12 13:19:13;;;;;;;10.60;9.60;;;;;;;29.55;52.73;98493.02;225642;1262;22613;-74
2023/09/12 13:24:15;;;;;;;10.30;9.40;;;;;;;29.64;51.92;98484.09;225562;1265;22532;-75
2023/09/12 13:29:17;;;;;;;10.00;9.10;;;;;;;29.64;51.84;98482.08;225763;1268;25896;-74
2023/09/12 13:34:19;;;;;;;10.20;9.30;;;;;;;29.61;52.26;98481.48;225630;1275;153341;-73
2023/09/12 13:39:21;;;;;;;10.50;9.50;;;;;;;29.50;51.92;98481.74;225714;1272;24393;-74
2023/09/12 13:44:23;;;;;;;9.80;9.00;;;;;;;29.32;51.96;98481.20;225569;1277;22549;-74
2023/09/12 13:49:25;;;;;;;11.40;9.60;;;;;;;29.19;52.22;98484.77;225540;1275;25240;-74
2023/09/12 13:54:27;;;;;;;10.40;9.40;;;;;;;29.16;52.75;98484.31;225692;1275;22885;-73
2023/09/12 13:59:29;;;;;;;10.80;9.90;;;;;;;29.08;52.60;98483.76;225707;1261;22618;-72
2023/09/12 14:04:45;;;;;;;10.40;9.50;;;;;;;28.98;53.18;98485.90;225131;1279;22548;-73
2023/09/12 14:09:52;;;;;;;10.20;9.30;;;;;;;28.85;53.15;98481.31;225255;1268;22584;-73
2023/09/12 14:14:54;;;;;;;10.90;9.90;;;;;;;28.71;53.58;98478.03;225445;1272;22541;-72
2023/09/12 14:20:09;;;;;;;10.80;9.90;;;;;;;28.58;53.46;98478.84;225825;1268;22913;-75
2023/09/12 14:25:14;;;;;;;10.00;9.10;;;;;;;28.46;53.79;98480.42;225917;1280;22718;-75
2023/09/12 14:30:18;;;;;;;10.70;9.50;;;;;;;28.38;53.78;98481.96;226045;1278;22566;-76
2023/09/12 14:35:20;;;;;;;11.00;9.90;;;;;;;28.33;53.58;98484.39;226186;1274;22535;-76
2023/09/12 14:40:23;;;;;;;11.80;10.40;;;;;;;28.36;53.94;98485.15;226184;1276;22609;-75
2023/09/12 14:45:27;;;;;;;10.80;9.80;;;;;;;28.36;53.77;98488.00;226180;1275;26205;-75
2023/09/12 14:50:29;;;;;;;10.90;9.80;;;;;;;28.35;53.80;98486.33;226219;1276;22572;-75
2023/09/12 14:55:43;;;;;;;10.90;9.90;;;;;;;28.34;53.79;98487.96;225982;1275;22682;-74
2023/09/12 15:00:46;;;;;;;11.10;9.90;;;;;;;28.30;54.00;98487.69;226287;1276;22552;-75
2023/09/12 15:05:48;;;;;;;11.20;10.20;;;;;;;28.29;54.21;98487.00;225981;1279;22724;-74
2023/09/12 15:10:50;;;;;;;13.40;10.60;;;;;;;28.28;54.29;98485.75;226061;1278;22527;-74
2023/09/12 15:15:52;;;;;;;11.10;10.10;;;;;;;28.28;54.07;98486.11;225845;1280;22582;-75
2023/09/12 15:20:54;;;;;;;11.30;10.30;;;;;;;28.27;53.89;98482.67;226182;1276;22592;-75
2023/09/12 15:25:56;;;;;;;11.80;10.80;;;;;;;28.30;53.98;98483.48;225997;1275;22677;-75
2023/09/12 15:31:01;;;;;;;12.60;11.30;;;;;;;28.34;54.29;98482.41;226047;1280;22568;-75
2023/09/12 15:36:04;;;;;;;13.20;12.00;;;;;;;28.39;54.30;98481.40;226206;1275;22554;-76
2023/09/12 15:41:07;;;;;;;13.00;11.90;;;;;;;28.47;54.25;98479.08;226203;1278;22761;-75
2023/09/12 15:46:09;;;;;;;11.40;10.40;;;;;;;28.55;54.15;98473.70;226115;1280;25445;-74
2023/09/12 15:51:13;;;;;;;12.50;11.30;;;;;;;28.60;54.07;98471.40;226179;1278;22535;-76
2023/09/12 15:56:15;;;;;;;13.10;11.90;;;;;;;28.61;54.01;98473.17;226209;1277;22536;-75
2023/09/12 16:01:17;;;;;;;11.40;10.30;;;;;;;28.55;54.47;98468.97;225923;1275;22544;-75
2023/09/12 16:06:19;;;;;;;10.70;9.80;;;;;;;28.42;54.75;98467.19;226042;1277;22593;-74
2023/09/12 16:11:21;;;;;;;11.90;10.70;;;;;;;28.24;55.21;98465.39;225960;1279;24202;-75
2023/09/12 16:16:23;;;;;;;12.60;11.30;;;;;;;28.03;55.78;98467.61;225941;1280;22582;-76
2023/09/12 16:21:25;;;;;;;12.90;11.50;;;;;;;27.81;55.89;98471.54;225947;1279;22742;-75
2023/09/12 16:26:27;;;;;;;16.20;14.50;;;;;;;27.58;56.10;98469.23;225871;1278;22591;-75
2023/09/12 16:31:29;;;;;;;15.20;13.80;;;;;;;27.34;56.54;98469.26;226151;1276;22557;-75
2023/09/12 16:36:31;;;;;;;14.90;12.40;;;;;;;27.09;56.80;98475.07;226006;1278;22547;-76
2023/09/12 16:41:33;;;;;;;14.10;12.60;;;;;;;26.83;57.43;98477.23;226002;1280;22577;-76
2023/09/12 16:46:35;;;;;;;12.20;11.10;;;;;;;26.58;57.67;98478.43;225962;1280;25228;-74
2023/09/12 16:51:37;;;;;;;12.90;11.50;;;;;;;26.33;58.23;98471.71;226161;1280;22566;-76
2023/09/12 16:56:39;;;;;;;14.90;11.70;;;;;;;26.09;58.73;98471.52;225956;1275;22559;-74
2023/09/12 17:01:41;;;;;;;13.20;11.70;;;;;;;25.84;58.95;98473.05;226074;1278;25469;-76
2023/09/12 17:06:43;;;;;;;15.90;13.00;;;;;;;25.59;59.55;98471.70;225924;1278;22682;-76
2023/09/12 17:11:46;;;;;;;14.50;13.10;;;;;;;25.32;60.05;98472.83;226146;1275;23205;-78
2023/09/12 17:16:48;;;;;;;16.80;15.10;;;;;;;25.05;60.54;98469.34;225978;1278;22621;-75
2023/09/12 17:21:50;;;;;;;15.20;13.70;;;;;;;24.80;60.91;98473.61;226180;1278;22526;-75
2023/09/12 17:26:53;;;;;;;18.10;15.30;;;;;;;24.57;61.47;98475.66;226199;1278;22527;-76
2023/09/12 17:31:56;;;;;;;17.20;15.20;;;;;;;24.35;62.02;98482.19;226001;1275;22597;-73
2023/09/12 17:36:58;;;;;;;14.80;13.30;;;;;;;24.12;62.32;98486.58;225988;1280;22546;-75
2023/09/12 17:42:00;;;;;;;13.60;12.10;;;;;;;23.89;62.62;98491.41;226197;1280;22535;-74
2023/09/12 17:47:02;;;;;;;14.80;13.20;;;;;;;23.68;62.93;98492.64;226208;1280;22598;-74
2023/09/12 17:52:04;;;;;;;16.40;12.90;;;;;;;23.49;63.42;98493.49;226173;1280;25393;-75
2023/09/12 17:57:06;;;;;;;13.90;12.50;;;;;;;23.32;63.83;98497.35;226254;1278;22543;-75
2023/09/12 18:02:09;;;;;;;14.90;12.00;;;;;;;23.17;64.47;98498.17;225939;1278;22521;-75
2023/09/12 18:07:11;;;;;;;15.20;12.50;;;;;;;23.04;64.88;98498.34;226192;1268;22537;-75
2023/09/12 18:12:14;;;;;;;18.40;14.10;;;;;;;22.91;65.58;98497.90;225989;1278;22573;-75
2023/09/12 18:17:15;;;;;;;15.50;13.70;;;;;;;22.78;66.23;98505.05;225986;1278;22659;-75
2023/09/12 18:22:17;;;;;;;21.90;14.50;;;;;;;22.66;66.80;98504.58;226133;1280;22566;-74
2023/09/12 18:27:19;;;;;;;18.40;15.10;;;;;;;22.55;67.24;98509.98;225965;1280;22570;-74
2023/09/12 18:32:22;;;;;;;17.60;15.20;;;;;;;22.42;67.81;98516.19;226147;1278;22543;-75
2023/09/12 18:37:24;;;;;;;18.30;16.50;;;;;;;22.30;68.28;98515.50;225969;1278;22537;-74
2023/09/12 18:42:26;;;;;;;20.80;15.50;;;;;;;22.19;68.78;98518.20;226106;1280;22545;-76
2023/09/12 18:47:31;;;;;;;21.80;16.80;;;;;;;22.06;69.19;98515.30;226130;1278;22539;-74
2023/09/12 18:52:33;;;;;;;19.80;16.50;;;;;;;21.95;69.59;98516.48;226123;1278;22535;-74
2023/09/12 18:57:52;;;;;;;24.70;19.10;;;;;;;21.82;70.08;98517.83;226183;1278;22949;-74
2023/09/12 19:02:57;;;;;;;23.80;20.00;;;;;;;21.70;70.53;98518.23;226136;1280;24353;-74
2023/09/12 19:08:01;;;;;;;23.70;20.00;;;;;;;21.59;70.86;98521.33;226160;1280;22536;-74
2023/09/12 19:13:04;;;;;;;22.70;20.10;;;;;;;21.48;71.32;98521.54;226232;1276;22526;-76
2023/09/12 19:18:06;;;;;;;28.70;22.40;;;;;;;21.36;71.75;98519.02;226156;1280;22540;-75
2023/09/12 19:23:11;;;;;;;29.60;21.60;;;;;;;21.26;72.18;98519.41;226145;1273;22812;-74
2023/09/12 19:28:14;;;;;;;22.50;20.10;;;;;;;21.16;72.36;98512.21;226194;1276;22542;-75
2023/09/12 19:33:16;;;;;;;23.30;20.80;;;;;;;21.06;72.71;98512.43;225925;1280;22551;-74
2023/09/12 19:38:18;;;;;;;21.40;19.30;;;;;;;20.98;73.00;98512.86;225908;1261;22534;-74
2023/09/12 19:43:20;;;;;;;21.10;19.00;;;;;;;20.89;73.27;98516.32;225847;1276;24511;-74
2023/09/12 19:48:22;;;;;;;22.10;19.40;;;;;;;20.81;73.50;98514.18;225937;1280;22558;-73
2023/09/12 19:53:24;;;;;;;20.90;18.50;;;;;;;20.73;73.66;98511.41;226137;1280;22557;-75
2023/09/12 19:58:26;;;;;;;19.80;17.80;;;;;;;20.66;73.85;98516.23;226238;1278;24901;-74
2023/09/12 20:03:28;;;;;;;18.80;17.00;;;;;;;20.57;73.95;98517.38;226088;1278;22543;-75
2023/09/12 20:08:30;;;;;;;19.80;17.40;;;;;;;20.48;73.76;98518.61;226151;1280;22612;-75
2023/09/12 20:13:32;;;;;;;19.80;17.30;;;;;;;20.38;73.77;98516.59;226200;1278;22548;-75
2023/09/12 20:18:34;;;;;;;20.50;18.30;;;;;;;20.29;73.94;98520.00;226180;1280;22542;-75
2023/09/12 20:23:37;;;;;;;22.40;20.10;;;;;;;20.21;74.38;98522.61;226204;1278;22542;-75
2023/09/12 20:28:39;;;;;;;24.10;20.70;;;;;;;20.12;74.68;98523.09;226141;1279;24620;-76
2023/09/12 20:33:41;;;;;;;22.80;20.50;;;;;;;20.02;75.13;98515.38;226159;1278;22549;-74
2023/09/12 20:38:47;;;;;;;23.60;20.60;;;;;;;19.92;75.39;98517.96;225984;1278;22543;-76
2023/09/12 20:43:49;;;;;;;22.40;20.10;;;;;;;19.84;75.65;98522.19;226157;1278;25438;-75
2023/09/12 20:48:51;;;;;;;25.00;21.50;;;;;;;19.79;76.01;98521.75;225982;1279;22540;-73
2023/09/12 20:53:52;;;;;;;23.10;20.80;;;;;;;19.71;76.00;98525.72;226111;1280;22559;-73
2023/09/12 20:58:54;;;;;;;23.00;20.70;;;;;;;19.63;76.22;98526.92;226141;1278;22561;-74
2023/09/12 21:03:56;;;;;;;24.70;22.00;;;;;;;19.58;76.39;98525.73;226179;1261;22572;-74
2023/09/12 21:08:58;;;;;;;26.30;23.40;;;;;;;19.51;76.34;98525.98;226190;1275;22555;-74
2023/09/12 21:14:00;;;;;;;24.30;21.70;;;;;;;19.46;76.49;98528.30;226172;1280;22542;-74
2023/09/12 21:19:05;;;;;;;26.50;23.70;;;;;;;19.41;76.66;98534.91;226138;1280;22552;-74
2023/09/12 21:24:08;;;;;;;27.80;24.80;;;;;;;19.35;76.90;98534.50;226067;1280;22633;-73
2023/09/12 21:29:10;;;;;;;29.00;25.90;;;;;;;19.28;77.20;98543.11;226187;1280;22541;-73
2023/09/12 21:34:12;;;;;;;30.50;25.50;;;;;;;19.22;77.40;98543.41;225920;1280;22567;-73
2023/09/12 21:39:14;;;;;;;29.30;26.00;;;;;;;19.15;77.44;98540.11;226235;1277;25224;-74
2023/09/12 21:44:15;;;;;;;32.00;27.20;;;;;;;19.07;77.85;98537.11;225991;1280;22541;-73
2023/09/12 21:49:17;;;;;;;29.40;25.70;;;;;;;19.00;78.02;98541.32;226166;1276;22563;-74
2023/09/12 21:54:19;;;;;;;30.00;26.70;;;;;;;18.92;78.23;98541.73;226097;1280;23591;-74
2023/09/12 21:59:21;;;;;;;28.30;25.20;;;;;;;18.82;78.42;98542.41;226149;1280;22635;-74
2023/09/12 22:04:23;;;;;;;26.50;23.80;;;;;;;18.74;78.45;98543.78;226178;1276;22741;-74
2023/09/12 22:09:25;;;;;;;33.10;25.00;;;;;;;18.66;78.43;98543.54;226166;1276;22548;-73
2023/09/12 22:14:27;;;;;;;27.80;24.80;;;;;;;18.60;78.45;98540.02;225969;1278;22547;-73
2023/09/12 22:19:29;;;;;;;29.80;24.50;;;;;;;18.55;78.51;98539.54;226205;1279;23128;-73
2023/09/12 22:24:32;;;;;;;26.90;24.10;;;;;;;18.50;78.64;98530.84;226175;1276;22545;-74
2023/09/12 22:29:34;;;;;;;26.50;23.70;;;;;;;18.45;78.74;98534.57;226187;1278;22559;-74
2023/09/12 22:34:36;;;;;;;27.50;24.60;;;;;;;18.40;78.85;98535.73;225990;1278;22688;-75
2023/09/12 22:39:38;;;;;;;27.70;24.60;;;;;;;18.34;78.77;98538.19;226167;1280;22557;-73
2023/09/12 22:44:40;;;;;;;26.50;23.70;;;;;;;18.27;78.81;98535.30;226182;1280;22547;-74
2023/09/12 22:49:42;;;;;;;27.50;24.40;;;;;;;18.21;78.95;98536.77;226191;1275;22610;-74
2023/09/12 22:54:44;;;;;;;28.50;25.60;;;;;;;18.14;79.04;98532.79;226161;1280;22541;-73
2023/09/12 22:59:46;;;;;;;31.20;25.50;;;;;;;18.09;79.15;98530.27;226200;1276;22558;-74